Time;durP1;ratioP1;P1;durP2;ratioP2;P2;SDS_P1;SDS_P2;PMS_P1;PMS_P2;Temp;Humidity;BMP_temperature;BMP_pressure;BME280_temperature;BME280_humidity;BME280_pressure;Samples;Min_cycle;Max_cycle;Signal;HPM_P1;HPM_P2
2021/12/16 00:09:28;;;;;;;;;;;;;;;;;;2199028;59;1579;-71
2021/12/16 00:32:17;;;;;;;;;;;;;;;;;;2199355;67;1065;-71
2021/12/16 00:34:51;;;;;;;;;;;;;;;;;;2199558;67;1154;-71
2021/12/16 00:37:24;;;;;;;;;;;;;;;;;;2199901;59;1938;-72
2021/12/16 00:39:57;;;;;;;;;;;;;;;;;;2199194;59;1300;-71
2021/12/16 00:42:41;;;;;;;;;;;;;;;;;;2200045;59;1375;-71
2021/12/16 00:48:08;;;;;;;;;;;;;;;;;;2199711;59;1984;-71
2021/12/16 00:56:21;;;;;;;;;;;;;;;;;;2200011;67;1123;-71
2021/12/16 00:58:55;;;;;;;;;;;;;;;;;;2200053;67;1937;-71
2021/12/16 01:01:41;;;;;;;;;;;;;;;;;;2199871;59;1205;-71
2021/12/16 01:04:51;;;;;;;;;;;;;;;;;;2199717;59;1125;-71
2021/12/16 01:35:44;;;;;;;;;;;;;;;;;;2200407;67;1079;-71
2021/12/16 01:47:02;;;;;;;;;;;;;;;;;;2191742;67;1264;-71
2021/12/16 01:49:48;;;;;;;;;;;;;;;;;;2200103;59;1943;-71
2021/12/16 01:55:19;;;;;;;;;;;;;;;;;;2198841;67;1200;-71
2021/12/16 01:57:56;;;;;;;;;;;;;;;;;;2199983;59;1989;-71
2021/12/16 02:00:42;;;;;;;;;;;;;;;;;;2200413;67;1333;-71
2021/12/16 02:03:24;;;;;;;;;;;;;;;;;;2197652;59;1386;-71
2021/12/16 02:06:08;;;;;;;;;;;;;;;;;;2200411;67;1129;-71
2021/12/16 02:08:45;;;;;;;;;;;;;;;;;;2201409;53;3626;-70
2021/12/16 02:11:28;;;;;;;;;;;;;;;;;;2202387;64;1252;-70
2021/12/16 02:28:37;;;;;;;;;;;;;;;;;;2203850;59;1669;-70
2021/12/16 02:36:48;;;;;;;;;;;;;;;;;;2206134;59;1256;-70
2021/12/16 02:39:26;;;;;;;;;;;;;;;;;;2205400;67;1925;-70
2021/12/16 02:42:04;;;;;;;;;;;;;;;;;;2203877;59;1241;-70
2021/12/16 02:48:27;;;;;;;;;;;;;;;;;;2205028;67;1076;-71
2021/12/16 02:50:23;;;;;;;;;;;;;;;;;;2204669;67;1889;-70
2021/12/16 02:52:57;;;;;;;;;;;;;;;;;;2205265;67;1152;-70
2021/12/16 02:55:33;;;;;;;;;;;;;;;;;;2205330;59;1164;-71
2021/12/16 02:58:06;;;;;;;;;;;;;;;;;;2205435;59;1936;-70
2021/12/16 03:00:41;;;;;;;;;;;;;;;;;;2205076;67;1060;-70
2021/12/16 03:03:15;;;;;;;;;;;;;;;;;;2205005;59;1283;-70
2021/12/16 03:05:49;;;;;;;;;;;;;;;;;;2204898;59;1180;-70
2021/12/16 03:08:23;;;;;;;;;;;;;;;;;;2204929;59;2056;-70
2021/12/16 03:11:19;;;;;;;;;;;;;;;;;;2205344;67;1125;-71
2021/12/16 03:14:15;;;;;;;;;;;;;;;;;;2204266;67;1219;-70
2021/12/16 03:17:04;;;;;;;;;;;;;;;;;;2205019;59;1314;-70
2021/12/16 03:19:50;;;;;;;;;;;;;;;;;;2204988;59;1928;-70
2021/12/16 03:22:42;;;;;;;;;;;;;;;;;;2205090;59;1319;-71
2021/12/16 03:25:23;;;;;;;;;;;;;;;;;;2200692;67;1403;-70
2021/12/16 03:34:13;;;;;;;;;;;;;;;;;;2203907;67;1119;-70
2021/12/16 03:37:12;;;;;;;;;;;;;;;;;;2204573;59;1318;-70
2021/12/16 03:39:48;;;;;;;;;;;;;;;;;;2205593;67;1931;-70
2021/12/16 03:42:22;;;;;;;;;;;;;;;;;;2205794;59;1323;-70
2021/12/16 03:45:05;;;;;;;;;;;;;;;;;;2204052;67;1127;-70
2021/12/16 03:47:41;;;;;;;;;;;;;;;;;;2205748;59;1612;-69
2021/12/16 03:50:17;;;;;;;;;;;;;;;;;;2201046;67;1344;-70
2021/12/16 03:52:51;;;;;;;;;;;;;;;;;;2205368;67;1217;-70
2021/12/16 03:55:25;;;;;;;;;;;;;;;;;;2205489;67;1269;-70
2021/12/16 03:57:58;;;;;;;;;;;;;;;;;;2205714;59;1931;-70
2021/12/16 04:00:36;;;;;;;;;;;;;;;;;;2204928;67;1193;-70
2021/12/16 04:03:16;;;;;;;;;;;;;;;;;;2205018;59;1690;-70
2021/12/16 04:05:50;;;;;;;;;;;;;;;;;;2205032;67;1120;-70
2021/12/16 04:08:23;;;;;;;;;;;;;;;;;;2204888;59;1713;-70
2021/12/16 04:11:04;;;;;;;;;;;;;;;;;;2204436;67;1088;-70
2021/12/16 04:13:53;;;;;;;;;;;;;;;;;;2204583;59;1323;-70
2021/12/16 04:16:38;;;;;;;;;;;;;;;;;;2204819;59;1315;-70
2021/12/16 04:19:12;;;;;;;;;;;;;;;;;;2204726;59;1925;-70
2021/12/16 04:21:48;;;;;;;;;;;;;;;;;;2204864;59;1589;-70
2021/12/16 04:24:22;;;;;;;;;;;;;;;;;;2204760;67;1307;-70
2021/12/16 04:26:56;;;;;;;;;;;;;;;;;;2204202;59;1278;-71
2021/12/16 04:29:30;;;;;;;;;;;;;;;;;;2205114;59;1811;-70
2021/12/16 04:32:10;;;;;;;;;;;;;;;;;;2205194;59;1075;-70
2021/12/16 04:34:44;;;;;;;;;;;;;;;;;;2204304;67;1203;-70
2021/12/16 04:37:17;;;;;;;;;;;;;;;;;;2204242;59;1284;-70
2021/12/16 04:39:54;;;;;;;;;;;;;;;;;;2204647;67;1987;-70
2021/12/16 04:42:29;;;;;;;;;;;;;;;;;;2205083;67;1272;-70
2021/12/16 04:45:04;;;;;;;;;;;;;;;;;;2204057;67;1245;-70
2021/12/16 04:50:38;;;;;;;;;;;;;;;;;;2204738;67;1123;-70
2021/12/16 04:53:15;;;;;;;;;;;;;;;;;;2205718;67;1264;-70
2021/12/16 04:55:48;;;;;;;;;;;;;;;;;;2205426;67;1238;-70
2021/12/16 04:58:28;;;;;;;;;;;;;;;;;;2205309;59;1965;-70
2021/12/16 05:01:02;;;;;;;;;;;;;;;;;;2204826;67;1263;-70
2021/12/16 05:03:51;;;;;;;;;;;;;;;;;;;;;
2021/12/16 05:06:34;;;;;;;;;;;;;;;;;;2203602;59;2395;-70
2021/12/16 05:09:09;;;;;;;;;;;;;;;;;;2204009;59;1737;-70
2021/12/16 05:11:44;;;;;;;;;;;;;;;;;;2203764;59;1210;-70
2021/12/16 05:14:20;;;;;;;;;;;;;;;;;;2204970;67;1182;-70
2021/12/16 05:16:56;;;;;;;;;;;;;;;;;;2203908;59;1204;-70
2021/12/16 05:19:48;;;;;;;;;;;;;;;;;;;;;
2021/12/16 05:25:58;;;;;;;;;;;;;;;;;;2204322;67;1041;-70
2021/12/16 05:28:32;;;;;;;;;;;;;;;;;;2204836;59;1733;-70
2021/12/16 05:31:05;;;;;;;;;;;;;;;;;;2205725;59;1481;-70
2021/12/16 05:33:39;;;;;;;;;;;;;;;;;;2204470;67;1128;-70
2021/12/16 05:36:43;;;;;;;;;;;;;;;;;;2204015;67;1233;-70
2021/12/16 05:39:26;;;;;;;;;;;;;;;;;;2203619;67;1937;-70
2021/12/16 05:42:00;;;;;;;;;;;;;;;;;;2205455;67;1159;-70
2021/12/16 05:44:33;;;;;;;;;;;;;;;;;;2203873;67;1163;-70
2021/12/16 05:47:09;;;;;;;;;;;;;;;;;;2204517;67;1184;-71
2021/12/16 05:49:55;;;;;;;;;;;;;;;;;;2204244;59;2083;-70
2021/12/16 05:52:31;;;;;;;;;;;;;;;;;;2205115;59;1233;-70
2021/12/16 05:55:17;;;;;;;;;;;;;;;;;;2203426;59;2590;-70
2021/12/16 05:57:55;;;;;;;;;;;;;;;;;;2203053;59;1376;-70
2021/12/16 06:00:33;;;;;;;;;;;;;;;;;;2204306;67;1933;-70
2021/12/16 06:03:09;;;;;;;;;;;;;;;;;;2204908;67;1316;-71
2021/12/16 06:05:46;;;;;;;;;;;;;;;;;;2204102;67;1229;-70
2021/12/16 06:08:23;;;;;;;;;;;;;;;;;;2204042;59;1847;-70
2021/12/16 06:14:14;;;;;;;;;;;;;;;;;;2204309;67;1998;-70
2021/12/16 06:26:23;;;;;;;;;;;;;;;;;;2204791;59;1388;-70
2021/12/16 06:28:57;;;;;;;;;;;;;;;;;;2200457;59;2105;-70
2021/12/16 06:31:44;;;;;;;;;;;;;;;;;;2205680;67;1490;-70
2021/12/16 06:34:18;;;;;;;;;;;;;;;;;;2205403;67;1383;-70
2021/12/16 06:36:52;;;;;;;;;;;;;;;;;;2204446;59;1253;-70
2021/12/16 06:39:28;;;;;;;;;;;;;;;;;;2204457;67;1930;-70
2021/12/16 06:42:05;;;;;;;;;;;;;;;;;;2204618;67;1095;-70
2021/12/16 06:45:10;;;;;;;;;;;;;;;;;;2205385;67;1169;-70
2021/12/16 06:47:58;;;;;;;;;;;;;;;;;;2203581;59;1900;-70
2021/12/16 06:50:40;;;;;;;;;;;;;;;;;;2205764;67;1288;-70
2021/12/16 06:53:19;;;;;;;;;;;;;;;;;;2204714;59;1134;-70
2021/12/16 06:56:04;;;;;;;;;;;;;;;;;;2204282;67;1233;-70
2021/12/16 06:58:43;;;;;;;;;;;;;;;;;;2204421;59;1305;-70
2021/12/16 07:01:30;;;;;;;;;;;;;;;;;;2204288;59;2004;-70
2021/12/16 07:04:07;;;;;;;;;;;;;;;;;;2203630;67;1182;-70
2021/12/16 07:06:41;;;;;;;;;;;;;;;;;;2204166;67;1096;-70
2021/12/16 07:09:16;;;;;;;;;;;;;;;;;;2204327;59;1830;-70
2021/12/16 07:11:53;;;;;;;;;;;;;;;;;;2203805;59;1324;-70
2021/12/16 07:14:35;;;;;;;;;;;;;;;;;;2204135;67;1229;-70
2021/12/16 07:17:12;;;;;;;;;;;;;;;;;;2204596;59;1321;-70
2021/12/16 07:19:48;;;;;;;;;;;;;;;;;;2204269;59;1935;-70
2021/12/16 07:22:22;;;;;;;;;;;;;;;;;;2204663;59;1453;-70
2021/12/16 07:24:55;;;;;;;;;;;;;;;;;;2203451;67;1168;-68
2021/12/16 07:27:33;;;;;;;;;;;;;;;;;;2206398;59;1728;-70
2021/12/16 07:30:10;;;;;;;;;;;;;;;;;;2205583;59;1488;-69
2021/12/16 07:32:43;;;;;;;;;;;;;;;;;;2204253;59;1658;-69
2021/12/16 07:35:22;;;;;;;;;;;;;;;;;;2205585;67;1197;-70
2021/12/16 07:37:55;;;;;;;;;;;;;;;;;;2205122;67;1329;-70
2021/12/16 07:40:30;;;;;;;;;;;;;;;;;;2204985;59;1982;-69
2021/12/16 07:43:41;;;;;;;;;;;;;;;;;;2205962;67;1106;-69
2021/12/16 07:46:16;;;;;;;;;;;;;;;;;;2204119;67;1210;-69
2021/12/16 07:52:18;;;;;;;;;;;;;;;;;;2201385;59;1034;-69
2021/12/16 07:54:51;;;;;;;;;;;;;;;;;;2204821;59;1459;-70
2021/12/16 07:57:25;;;;;;;;;;;;;;;;;;2204716;59;1423;-70
2021/12/16 08:00:00;;;;;;;;;;;;;;;;;;2205159;67;1929;-70
2021/12/16 08:02:42;;;;;;;;;;;;;;;;;;2204835;59;1316;-70
2021/12/16 08:05:16;;;;;;;;;;;;;;;;;;2204467;67;1200;-70
2021/12/16 08:07:52;;;;;;;;;;;;;;;;;;2207015;53;3676;-70
2021/12/16 08:10:26;;;;;;;;;;;;;;;;;;2205127;59;1873;-70
2021/12/16 08:12:59;;;;;;;;;;;;;;;;;;2207892;59;2340;-70
2021/12/16 08:15:33;;;;;;;;;;;;;;;;;;2205074;67;1421;-69
2021/12/16 08:18:06;;;;;;;;;;;;;;;;;;2208697;59;1485;-70
2021/12/16 08:20:40;;;;;;;;;;;;;;;;;;2207492;59;1948;-70
2021/12/16 08:23:16;;;;;;;;;;;;;;;;;;2207113;59;1413;-71
2021/12/16 08:25:49;;;;;;;;;;;;;;;;;;2207748;59;1190;-70
2021/12/16 08:28:23;;;;;;;;;;;;;;;;;;2205291;59;1809;-70
2021/12/16 08:30:57;;;;;;;;;;;;;;;;;;2208191;59;1916;-70
2021/12/16 08:33:30;;;;;;;;;;;;;;;;;;2208052;59;2003;-70
2021/12/16 08:36:04;;;;;;;;;;;;;;;;;;2210159;67;1200;-70
2021/12/16 08:38:40;;;;;;;;;;;;;;;;;;2209567;67;1233;-71
2021/12/16 08:41:15;;;;;;;;;;;;;;;;;;2209566;67;1926;-70
2021/12/16 08:43:49;;;;;;;;;;;;;;;;;;2209237;59;1497;-70
2021/12/16 08:46:23;;;;;;;;;;;;;;;;;;2208706;59;1332;-70
2021/12/16 08:48:57;;;;;;;;;;;;;;;;;;2208504;59;1942;-70
2021/12/16 08:51:32;;;;;;;;;;;;;;;;;;2209763;59;1169;-70
2021/12/16 08:54:08;;;;;;;;;;;;;;;;;;2205434;59;1200;-70
2021/12/16 08:56:42;;;;;;;;;;;;;;;;;;2207912;67;1152;-70
2021/12/16 08:59:16;;;;;;;;;;;;;;;;;;2206801;62;1884;-70
2021/12/16 09:01:50;;;;;;;;;;;;;;;;;;2207609;59;1928;-70
2021/12/16 09:04:24;;;;;;;;;;;;;;;;;;2206776;67;1188;-71
2021/12/16 09:07:00;;;;;;;;;;;;;;;;;;2207337;67;1205;-70
2021/12/16 09:09:36;;;;;;;;;;;;;;;;;;2206762;59;1962;-70
2021/12/16 09:12:14;;;;;;;;;;;;;;;;;;2208087;59;1239;-70
2021/12/16 09:14:47;;;;;;;;;;;;;;;;;;2206646;67;1201;-70
2021/12/16 09:17:20;;;;;;;;;;;;;;;;;;2207148;67;1094;-70
2021/12/16 09:19:54;;;;;;;;;;;;;;;;;;2206715;59;1971;-70
2021/12/16 09:22:29;;;;;;;;;;;;;;;;;;2207283;59;1317;-71
2021/12/16 09:25:06;;;;;;;;;;;;;;;;;;2205312;59;1103;-71
2021/12/16 09:27:39;;;;;;;;;;;;;;;;;;2206548;59;1202;-71
2021/12/16 09:30:14;;;;;;;;;;;;;;;;;;2208061;59;1466;-71
2021/12/16 09:32:48;;;;;;;;;;;;;;;;;;2208630;59;1090;-71
2021/12/16 09:35:22;;;;;;;;;;;;;;;;;;2204935;67;1598;-71
2021/12/16 09:37:56;;;;;;;;;;;;;;;;;;2207740;59;1943;-71
2021/12/16 09:40:35;;;;;;;;;;;;;;;;;;2208669;67;1936;-71
2021/12/16 09:43:08;;;;;;;;;;;;;;;;;;2207402;59;1231;-71
2021/12/16 09:45:42;;;;;;;;;;;;;;;;;;2208010;59;1748;-70
2021/12/16 09:48:15;;;;;;;;;;;;;;;;;;2206461;59;1698;-71
2021/12/16 09:50:48;;;;;;;;;;;;;;;;;;2203862;59;1612;-71
2021/12/16 09:53:22;;;;;;;;;;;;;;;;;;2204931;59;1654;-71
2021/12/16 09:56:01;;;;;;;;;;;;;;;;;;2204601;59;2004;-71
2021/12/16 09:58:36;;;;;;;;;;;;;;;;;;2202675;59;1811;-71
2021/12/16 10:01:10;;;;;;;;;;;;;;;;;;2206062;59;2109;-71
2021/12/16 10:03:46;;;;;;;;;;;;;;;;;;2207102;59;1357;-71
2021/12/16 10:06:19;;;;;;;;;;;;;;;;;;2204545;67;1284;-71
2021/12/16 10:08:52;;;;;;;;;;;;;;;;;;2207137;59;1669;-71
2021/12/16 10:11:28;;;;;;;;;;;;;;;;;;2207915;59;1784;-71
2021/12/16 10:14:16;;;;;;;;;;;;;;;;;;2205287;59;1576;-71
2021/12/16 10:19:39;;;;;;;;;;;;;;;;;;2206731;59;1815;-71
2021/12/16 10:22:20;;;;;;;;;;;;;;;;;;2206667;59;2051;-71
2021/12/16 10:24:54;;;;;;;;;;;;;;;;;;2206752;59;1302;-71
2021/12/16 10:27:30;;;;;;;;;;;;;;;;;;2207355;59;1195;-70
2021/12/16 10:30:07;;;;;;;;;;;;;;;;;;2205984;59;1638;-71
2021/12/16 10:32:41;;;;;;;;;;;;;;;;;;2205214;59;2040;-71
2021/12/16 10:35:16;;;;;;;;;;;;;;;;;;2206597;59;1513;-71
2021/12/16 10:37:57;;;;;;;;;;;;;;;;;;2205587;59;1208;-71
2021/12/16 10:40:34;;;;;;;;;;;;;;;;;;2206775;59;1944;-71
2021/12/16 10:43:11;;;;;;;;;;;;;;;;;;2207053;59;1808;-71
2021/12/16 10:45:45;;;;;;;;;;;;;;;;;;2208621;67;1110;-71
2021/12/16 10:48:26;;;;;;;;;;;;;;;;;;2207036;59;1703;-71
2021/12/16 10:51:20;;;;;;;;;;;;;;;;;;2206631;59;1551;-71
2021/12/16 10:53:56;;;;;;;;;;;;;;;;;;2209436;59;1367;-70
2021/12/16 10:56:31;;;;;;;;;;;;;;;;;;2205612;59;1835;-71
2021/12/16 10:59:08;;;;;;;;;;;;;;;;;;2202872;59;1915;-71
2021/12/16 11:01:53;;;;;;;;;;;;;;;;;;2204198;59;2010;-70
2021/12/16 11:04:30;;;;;;;;;;;;;;;;;;2209799;59;1248;-70
2021/12/16 11:07:06;;;;;;;;;;;;;;;;;;2207413;59;2455;-71
2021/12/16 11:09:54;;;;;;;;;;;;;;;;;;2205942;59;2220;-70
2021/12/16 11:12:36;;;;;;;;;;;;;;;;;;2208847;59;1724;-70
2021/12/16 11:15:16;;;;;;;;;;;;;;;;;;2207932;59;1761;-70
2021/12/16 11:17:51;;;;;;;;;;;;;;;;;;2208519;59;1753;-70
2021/12/16 11:20:32;;;;;;;;;;;;;;;;;;2207617;59;1943;-70
2021/12/16 11:23:07;;;;;;;;;;;;;;;;;;2207470;59;2094;-70
2021/12/16 11:25:42;;;;;;;;;;;;;;;;;;2206388;67;998;-70
2021/12/16 11:28:19;;;;;;;;;;;;;;;;;;2203723;59;1581;-70
2021/12/16 11:30:57;;;;;;;;;;;;;;;;;;2206988;59;1476;-70
2021/12/16 11:33:32;;;;;;;;;;;;;;;;;;2208186;59;1135;-70
2021/12/16 11:36:09;;;;;;;;;;;;;;;;;;2207136;59;1144;-70
2021/12/16 11:38:44;;;;;;;;;;;;;;;;;;2207428;59;1267;-70
2021/12/16 11:41:25;;;;;;;;;;;;;;;;;;2208054;59;1933;-70
2021/12/16 11:44:06;;;;;;;;;;;;;;;;;;2204663;59;2362;-70
2021/12/16 11:46:44;;;;;;;;;;;;;;;;;;2207566;59;1410;-70
2021/12/16 11:49:23;;;;;;;;;;;;;;;;;;2208026;59;1708;-70
2021/12/16 11:51:59;;;;;;;;;;;;;;;;;;2208138;59;1072;-71
2021/12/16 11:54:34;;;;;;;;;;;;;;;;;;2208230;67;1312;-71
2021/12/16 11:57:10;;;;;;;;;;;;;;;;;;2207369;59;1416;-71
2021/12/16 11:59:45;;;;;;;;;;;;;;;;;;2209174;67;1190;-70
2021/12/16 12:02:31;;;;;;;;;;;;;;;;;;2208705;59;1932;-70
2021/12/16 12:05:19;;;;;;;;;;;;;;;;;;2207160;67;1056;-71
2021/12/16 12:07:53;;;;;;;;;;;;;;;;;;2207013;59;2570;-71
2021/12/16 12:10:40;;;;;;;;;;;;;;;;;;2205967;59;2603;-71
2021/12/16 12:13:15;;;;;;;;;;;;;;;;;;2206456;59;1334;-70
2021/12/16 12:15:55;;;;;;;;;;;;;;;;;;2207007;59;1176;-71
2021/12/16 12:18:35;;;;;;;;;;;;;;;;;;2208853;59;1306;-71
2021/12/16 12:21:18;;;;;;;;;;;;;;;;;;2207467;59;1934;-70
2021/12/16 12:23:53;;;;;;;;;;;;;;;;;;2208215;59;1375;-70
2021/12/16 12:26:27;;;;;;;;;;;;;;;;;;2208023;59;1554;-70
2021/12/16 12:29:01;;;;;;;;;;;;;;;;;;2208177;59;1765;-71
2021/12/16 12:31:36;;;;;;;;;;;;;;;;;;2207698;59;1600;-71
2021/12/16 12:34:13;;;;;;;;;;;;;;;;;;2207404;59;1673;-71
2021/12/16 12:36:47;;;;;;;;;;;;;;;;;;2206715;59;1260;-70
2021/12/16 12:39:23;;;;;;;;;;;;;;;;;;2206527;59;1184;-71
2021/12/16 12:41:57;;;;;;;;;;;;;;;;;;2204588;67;1932;-70
2021/12/16 12:44:30;;;;;;;;;;;;;;;;;;2207112;59;1310;-71
2021/12/16 12:47:04;;;;;;;;;;;;;;;;;;2208180;67;1179;-70
2021/12/16 12:49:41;;;;;;;;;;;;;;;;;;2207299;59;1662;-70
2021/12/16 12:52:15;;;;;;;;;;;;;;;;;;2207968;59;1259;-70
2021/12/16 12:54:59;;;;;;;;;;;;;;;;;;2206081;59;1433;-71
2021/12/16 12:57:33;;;;;;;;;;;;;;;;;;2206319;59;1556;-70
2021/12/16 13:00:08;;;;;;;;;;;;;;;;;;2207227;59;1355;-70
2021/12/16 13:02:41;;;;;;;;;;;;;;;;;;2207595;59;1947;-70
2021/12/16 13:05:20;;;;;;;;;;;;;;;;;;2209170;59;1216;-70
2021/12/16 13:07:56;;;;;;;;;;;;;;;;;;2207838;59;1766;-71
2021/12/16 13:10:33;;;;;;;;;;;;;;;;;;2206589;59;2550;-71
2021/12/16 13:13:28;;;;;;;;;;;;;;;;;;2206447;59;1373;-71
2021/12/16 13:16:40;;;;;;;;;;;;;;;;;;2209007;59;1173;-71
2021/12/16 13:26:01;;;;;;;;;;;;;;;;;;2205890;67;1148;-70
2021/12/16 13:28:41;;;;;;;;;;;;;;;;;;2208190;59;1677;-71
2021/12/16 13:31:26;;;;;;;;;;;;;;;;;;2207030;59;1915;-71
2021/12/16 13:34:01;;;;;;;;;;;;;;;;;;2207716;59;1297;-71
2021/12/16 13:36:44;;;;;;;;;;;;;;;;;;2208301;59;1188;-70
2021/12/16 13:39:22;;;;;;;;;;;;;;;;;;2207081;59;1287;-71
2021/12/16 13:42:00;;;;;;;;;;;;;;;;;;2207300;59;1969;-70
2021/12/16 13:44:40;;;;;;;;;;;;;;;;;;2208191;59;1241;-70
2021/12/16 13:47:24;;;;;;;;;;;;;;;;;;2206355;67;1106;-71
2021/12/16 14:02:57;;;;;;;;;;;;;;;;;;2221958;58;1297;-72
2021/12/16 14:05:46;;;;;;;;;;;;;;;;;;2219899;58;1259;-72
2021/12/16 14:08:32;;;;;;;;;;;;;;;;;;2218137;53;3567;-71
2021/12/16 14:11:33;;;;;;;;;;;;;;;;;;2207594;58;2713;-71
2021/12/16 14:14:28;;;;;;;;;;;;;;;;;;2208200;59;1753;-71
2021/12/16 14:17:16;;;;;;;;;;;;;;;;;;2208477;59;1128;-71
2021/12/16 14:23:08;;;;;;;;;;;;;;;;;;2209689;59;1930;-71
2021/12/16 14:26:06;;;;;;;;;;;;;;;;;;2209351;58;1416;-71
2021/12/16 14:32:05;;;;;;;;;;;;;;;;;;2211533;59;1681;-71
2021/12/16 14:37:33;;;;;;;;;;;;;;;;;;2208793;67;2783;-71
2021/12/16 14:40:35;;;;;;;;;;;;;;;;;;2210081;59;1315;-71
2021/12/16 14:43:24;;;;;;;;;;;;;;;;;;2208891;59;1733;-71
2021/12/16 14:46:03;;;;;;;;;;;;;;;;;;2209538;59;1565;-70
2021/12/16 14:48:39;;;;;;;;;;;;;;;;;;2211543;59;1690;-70
2021/12/16 14:51:15;;;;;;;;;;;;;;;;;;2208917;59;1551;-71
2021/12/16 14:53:53;;;;;;;;;;;;;;;;;;2209034;58;1513;-70
2021/12/16 14:56:28;;;;;;;;;;;;;;;;;;2209615;58;1296;-70
2021/12/16 14:59:02;;;;;;;;;;;;;;;;;;2208927;59;1441;-70
2021/12/16 15:01:37;;;;;;;;;;;;;;;;;;2212291;58;1927;-70
2021/12/16 15:04:14;;;;;;;;;;;;;;;;;;2209849;66;1139;-70
2021/12/16 15:06:53;;;;;;;;;;;;;;;;;;2209871;58;1209;-70
2021/12/16 15:09:31;;;;;;;;;;;;;;;;;;2208935;58;1758;-70
2021/12/16 15:12:11;;;;;;;;;;;;;;;;;;2208398;59;2450;-71
2021/12/16 15:15:03;;;;;;;;;;;;;;;;;;2207152;59;2584;-71
2021/12/16 15:31:44;;;;;;;;;;;;;;;;;;2206462;66;1164;-71
2021/12/16 15:40:53;;;;;;;;;;;;;;;;;;2207758;59;1940;-70
2021/12/16 15:43:32;;;;;;;;;;;;;;;;;;2206535;59;1280;-70
2021/12/16 15:46:06;;;;;;;;;;;;;;;;;;2206348;59;1367;-70
2021/12/16 15:48:40;;;;;;;;;;;;;;;;;;2205937;59;1765;-70
2021/12/16 15:51:14;;;;;;;;;;;;;;;;;;2207096;59;1396;-70
2021/12/16 15:53:49;;;;;;;;;;;;;;;;;;2206549;59;1862;-70
2021/12/16 15:56:24;;;;;;;;;;;;;;;;;;2207540;66;1257;-70
2021/12/16 15:59:01;;;;;;;;;;;;;;;;;;2207158;59;1443;-70
2021/12/16 16:01:39;;;;;;;;;;;;;;;;;;2205916;59;1947;-71
2021/12/16 16:04:14;;;;;;;;;;;;;;;;;;2206334;59;1381;-71
2021/12/16 16:06:49;;;;;;;;;;;;;;;;;;2206335;59;1776;-71
2021/12/16 16:09:23;;;;;;;;;;;;;;;;;;2205936;58;1781;-71
2021/12/16 16:11:57;;;;;;;;;;;;;;;;;;2206888;58;2453;-71
2021/12/16 16:14:37;;;;;;;;;;;;;;;;;;2205725;58;2212;-70
2021/12/16 16:17:14;;;;;;;;;;;;;;;;;;2206366;59;1294;-71
2021/12/16 16:19:49;;;;;;;;;;;;;;;;;;2205827;58;1507;-70
2021/12/16 16:22:23;;;;;;;;;;;;;;;;;;2207304;59;1928;-70
2021/12/16 16:24:57;;;;;;;;;;;;;;;;;;2207697;59;1072;-70
2021/12/16 16:27:32;;;;;;;;;;;;;;;;;;2208863;58;1295;-70
2021/12/16 16:30:10;;;;;;;;;;;;;;;;;;2205766;59;1912;-70
2021/12/16 16:33:08;;;;;;;;;;;;;;;;;;2208762;66;1231;-71
2021/12/16 16:35:47;;;;;;;;;;;;;;;;;;2204965;59;1198;-71
2021/12/16 16:38:26;;;;;;;;;;;;;;;;;;2209322;59;1563;-70
2021/12/16 16:41:05;;;;;;;;;;;;;;;;;;2210067;59;1950;-70
2021/12/16 16:44:02;;;;;;;;;;;;;;;;;;2206634;59;1188;-70
2021/12/16 16:46:44;;;;;;;;;;;;;;;;;;2206199;58;1883;-70
2021/12/16 16:49:28;;;;;;;;;;;;;;;;;;2207150;58;1726;-71
2021/12/16 16:52:04;;;;;;;;;;;;;;;;;;2207296;58;1281;-70
2021/12/16 16:54:40;;;;;;;;;;;;;;;;;;2205048;58;1271;-71
2021/12/16 16:57:21;;;;;;;;;;;;;;;;;;2206763;59;1425;-70
2021/12/16 17:03:08;;;;;;;;;;;;;;;;;;2204659;59;5067;-70
2021/12/16 17:05:43;;;;;;;;;;;;;;;;;;2207178;58;1209;-70
2021/12/16 17:08:18;;;;;;;;;;;;;;;;;;2206972;59;1599;-71
2021/12/16 17:10:52;;;;;;;;;;;;;;;;;;2210063;58;1210;-71
2021/12/16 17:13:39;;;;;;;;;;;;;;;;;;2207278;59;2432;-70
2021/12/16 17:19:44;;;;;;;;;;;;;;;;;;2207741;59;1488;-71
2021/12/16 17:22:37;;;;;;;;;;;;;;;;;;2206466;59;1932;-71
2021/12/16 17:25:15;;;;;;;;;;;;;;;;;;2205426;59;1360;-71
2021/12/16 17:30:49;;;;;;;;;;;;;;;;;;2205093;59;1455;-70
2021/12/16 17:33:29;;;;;;;;;;;;;;;;;;2210752;58;1587;-70
2021/12/16 17:36:08;;;;;;;;;;;;;;;;;;2209681;59;1358;-70
2021/12/16 17:38:41;;;;;;;;;;;;;;;;;;2206588;66;1250;-71
2021/12/16 17:41:15;;;;;;;;;;;;;;;;;;2206662;58;1934;-70
2021/12/16 17:43:48;;;;;;;;;;;;;;;;;;2206808;66;1378;-70
2021/12/16 17:46:23;;;;;;;;;;;;;;;;;;2206221;59;1619;-70
2021/12/16 17:48:56;;;;;;;;;;;;;;;;;;2207238;59;1735;-71
2021/12/16 17:51:32;;;;;;;;;;;;;;;;;;2208846;58;2050;-70
2021/12/16 17:57:33;;;;;;;;;;;;;;;;;;2206717;59;1510;-71
2021/12/16 18:00:09;;;;;;;;;;;;;;;;;;2206349;58;1376;-71
2021/12/16 18:02:48;;;;;;;;;;;;;;;;;;2206244;59;1937;-70
2021/12/16 18:05:30;;;;;;;;;;;;;;;;;;2207357;58;1528;-71
2021/12/16 18:08:21;;;;;;;;;;;;;;;;;;2208914;58;1456;-70
2021/12/16 18:10:57;;;;;;;;;;;;;;;;;;2207202;59;1539;-70
2021/12/16 18:13:39;;;;;;;;;;;;;;;;;;2206871;59;2545;-70
2021/12/16 18:16:17;;;;;;;;;;;;;;;;;;2205644;59;2587;-71
2021/12/16 18:18:51;;;;;;;;;;;;;;;;;;2206411;59;1456;-70
2021/12/16 18:25:21;;;;;;;;;;;;;;;;;;2204018;59;2342;-70
2021/12/16 18:28:00;;;;;;;;;;;;;;;;;;2205591;58;1304;-70
2021/12/16 18:30:36;;;;;;;;;;;;;;;;;;2207501;59;1361;-70
2021/12/16 18:33:12;;;;;;;;;;;;;;;;;;2205589;59;1272;-71
2021/12/16 18:35:46;;;;;;;;;;;;;;;;;;2206003;67;1040;-71
2021/12/16 18:38:21;;;;;;;;;;;;;;;;;;2206174;67;1229;-71
2021/12/16 18:40:57;;;;;;;;;;;;;;;;;;2205629;59;1364;-71
2021/12/16 18:43:33;;;;;;;;;;;;;;;;;;2202434;67;1981;-70
2021/12/16 18:46:09;;;;;;;;;;;;;;;;;;2204950;59;1635;-71
2021/12/16 18:48:50;;;;;;;;;;;;;;;;;;2206082;59;1844;-71
2021/12/16 18:51:31;;;;;;;;;;;;;;;;;;2207901;59;1938;-70
2021/12/16 18:56:57;;;;;;;;;;;;;;;;;;2209757;66;2423;-70
2021/12/16 18:59:34;;;;;;;;;;;;;;;;;;2204843;59;1942;-71
2021/12/16 19:02:10;;;;;;;;;;;;;;;;;;2205572;59;1925;-70
2021/12/16 19:04:45;;;;;;;;;;;;;;;;;;2204686;59;2170;-70
2021/12/16 19:07:20;;;;;;;;;;;;;;;;;;2206129;66;1211;-70
2021/12/16 19:09:55;;;;;;;;;;;;;;;;;;2204432;59;1875;-71
2021/12/16 19:12:30;;;;;;;;;;;;;;;;;;2206297;67;1230;-70
2021/12/16 19:15:08;;;;;;;;;;;;;;;;;;2205284;66;1996;-71
2021/12/16 19:17:42;;;;;;;;;;;;;;;;;;2206321;59;1143;-71
2021/12/16 19:20:17;;;;;;;;;;;;;;;;;;2205749;59;1859;-70
2021/12/16 19:22:51;;;;;;;;;;;;;;;;;;2206156;59;1981;-70
2021/12/16 19:25:25;;;;;;;;;;;;;;;;;;2206565;59;1206;-70
2021/12/16 19:27:58;;;;;;;;;;;;;;;;;;2207242;58;1591;-70
2021/12/16 19:30:36;;;;;;;;;;;;;;;;;;2203758;59;1926;-70
2021/12/16 19:33:10;;;;;;;;;;;;;;;;;;2205368;59;1962;-70
2021/12/16 19:35:44;;;;;;;;;;;;;;;;;;2207498;66;1143;-70
2021/12/16 19:38:21;;;;;;;;;;;;;;;;;;2206661;59;1368;-71
2021/12/16 19:40:56;;;;;;;;;;;;;;;;;;2204914;59;2426;-70
2021/12/16 19:43:37;;;;;;;;;;;;;;;;;;2204523;59;1980;-70
2021/12/16 19:46:23;;;;;;;;;;;;;;;;;;2206575;66;1087;-70
2021/12/16 19:48:56;;;;;;;;;;;;;;;;;;2204906;59;1957;-70
2021/12/16 19:51:30;;;;;;;;;;;;;;;;;;2207015;67;1830;-71
2021/12/16 19:54:03;;;;;;;;;;;;;;;;;;2205993;58;1871;-70
2021/12/16 19:56:41;;;;;;;;;;;;;;;;;;2206678;59;2582;-70
2021/12/16 19:59:16;;;;;;;;;;;;;;;;;;2205880;59;2156;-71
2021/12/16 20:01:55;;;;;;;;;;;;;;;;;;2205493;66;2620;-71
2021/12/16 20:04:30;;;;;;;;;;;;;;;;;;2205757;67;2496;-70
2021/12/16 20:07:06;;;;;;;;;;;;;;;;;;2205909;67;1150;-71
2021/12/16 20:09:43;;;;;;;;;;;;;;;;;;2207519;59;3693;31
2021/12/16 20:12:17;;;;;;;;;;;;;;;;;;2213235;58;1386;-70
2021/12/16 20:14:51;;;;;;;;;;;;;;;;;;2213626;58;1810;-70
2021/12/16 20:17:29;;;;;;;;;;;;;;;;;;2217730;59;1117;-70
2021/12/16 20:20:03;;;;;;;;;;;;;;;;;;2216805;58;1554;-70
2021/12/16 20:22:37;;;;;;;;;;;;;;;;;;2216116;59;1983;-70
2021/12/16 20:25:14;;;;;;;;;;;;;;;;;;2214728;59;1157;-70
2021/12/16 20:27:48;;;;;;;;;;;;;;;;;;2216115;59;1261;-70
2021/12/16 20:30:23;;;;;;;;;;;;;;;;;;2216227;58;1881;-71
2021/12/16 20:33:01;;;;;;;;;;;;;;;;;;2217963;66;1120;-71
2021/12/16 20:35:36;;;;;;;;;;;;;;;;;;2216542;59;2140;-71
2021/12/16 20:38:10;;;;;;;;;;;;;;;;;;2216467;59;1066;-71
2021/12/16 20:40:45;;;;;;;;;;;;;;;;;;2215907;59;1202;-71
2021/12/16 20:43:21;;;;;;;;;;;;;;;;;;2214738;59;1919;-71
2021/12/16 20:45:58;;;;;;;;;;;;;;;;;;2215590;59;1105;-71
2021/12/16 20:48:35;;;;;;;;;;;;;;;;;;2214868;66;1137;-71
2021/12/16 20:51:09;;;;;;;;;;;;;;;;;;2215248;58;1718;-70
2021/12/16 20:53:42;;;;;;;;;;;;;;;;;;2215403;66;1285;-71
2021/12/16 20:56:16;;;;;;;;;;;;;;;;;;2216385;66;1190;-71
2021/12/16 20:58:52;;;;;;;;;;;;;;;;;;2215947;58;1367;-70
2021/12/16 21:01:26;;;;;;;;;;;;;;;;;;2221050;59;1249;-70
2021/12/16 21:04:05;;;;;;;;;;;;;;;;;;2218936;59;1920;-70
2021/12/16 21:06:40;;;;;;;;;;;;;;;;;;2221468;59;1061;-70
2021/12/16 21:09:14;;;;;;;;;;;;;;;;;;2217969;59;1295;-70
2021/12/16 21:11:48;;;;;;;;;;;;;;;;;;2214858;58;1496;-71
2021/12/16 21:14:23;;;;;;;;;;;;;;;;;;2216483;59;1407;-70
2021/12/16 21:16:57;;;;;;;;;;;;;;;;;;2214557;66;1169;-71
2021/12/16 21:19:33;;;;;;;;;;;;;;;;;;2216152;59;1256;-70
2021/12/16 21:22:07;;;;;;;;;;;;;;;;;;2214608;66;1327;-71
2021/12/16 21:24:40;;;;;;;;;;;;;;;;;;2214904;58;1923;-70
2021/12/16 21:27:14;;;;;;;;;;;;;;;;;;2214490;66;1212;-70
2021/12/16 21:29:47;;;;;;;;;;;;;;;;;;2214593;58;1729;-70
2021/12/16 21:32:20;;;;;;;;;;;;;;;;;;2214567;59;1120;-71
2021/12/16 21:35:01;;;;;;;;;;;;;;;;;;2214221;59;1043;-71
2021/12/16 21:37:34;;;;;;;;;;;;;;;;;;2214956;66;1124;-71